sensor_id;sensor_type;location;lat;lon;timestamp;P1;durP1;ratioP1;P2;durP2;ratioP2
78873;SDS011;68250;43.514;1.494;2023-05-08T00:00:58;14.23;;;2.75;;
78873;SDS011;68250;43.514;1.494;2023-05-08T00:03:23;11.50;;;2.00;;
78873;SDS011;68250;43.514;1.494;2023-05-08T00:05:49;11.90;;;2.20;;
78873;SDS011;68250;43.514;1.494;2023-05-08T00:08:14;12.40;;;2.53;;
78873;SDS011;68250;43.514;1.494;2023-05-08T00:10:40;10.23;;;2.20;;
78873;SDS011;68250;43.514;1.494;2023-05-08T00:13:05;13.48;;;2.78;;
78873;SDS011;68250;43.514;1.494;2023-05-08T00:15:31;18.63;;;2.70;;
78873;SDS011;68250;43.514;1.494;2023-05-08T00:17:57;19.92;;;2.75;;
78873;SDS011;68250;43.514;1.494;2023-05-08T00:20:22;12.77;;;2.20;;
78873;SDS011;68250;43.514;1.494;2023-05-08T00:22:48;15.43;;;2.73;;
78873;SDS011;68250;43.514;1.494;2023-05-08T00:25:13;12.10;;;2.70;;
78873;SDS011;68250;43.514;1.494;2023-05-08T00:27:39;16.47;;;2.93;;
78873;SDS011;68250;43.514;1.494;2023-05-08T00:30:06;12.07;;;2.10;;
78873;SDS011;68250;43.514;1.494;2023-05-08T00:32:32;13.32;;;2.10;;
78873;SDS011;68250;43.514;1.494;2023-05-08T00:34:57;14.55;;;2.60;;
78873;SDS011;68250;43.514;1.494;2023-05-08T00:37:23;10.43;;;2.10;;
78873;SDS011;68250;43.514;1.494;2023-05-08T00:39:48;13.20;;;2.60;;
78873;SDS011;68250;43.514;1.494;2023-05-08T00:42:14;12.50;;;2.38;;
78873;SDS011;68250;43.514;1.494;2023-05-08T00:44:39;12.47;;;2.40;;
78873;SDS011;68250;43.514;1.494;2023-05-08T00:47:06;14.90;;;2.63;;
78873;SDS011;68250;43.514;1.494;2023-05-08T00:49:31;13.50;;;2.60;;
78873;SDS011;68250;43.514;1.494;2023-05-08T00:51:59;12.00;;;2.40;;
78873;SDS011;68250;43.514;1.494;2023-05-08T00:54:26;15.98;;;2.50;;
78873;SDS011;68250;43.514;1.494;2023-05-08T00:56:52;14.43;;;2.38;;
78873;SDS011;68250;43.514;1.494;2023-05-08T00:59:19;10.18;;;1.80;;
78873;SDS011;68250;43.514;1.494;2023-05-08T01:01:46;14.30;;;2.45;;
78873;SDS011;68250;43.514;1.494;2023-05-08T01:04:13;14.38;;;2.45;;
78873;SDS011;68250;43.514;1.494;2023-05-08T01:06:38;10.75;;;2.47;;
78873;SDS011;68250;43.514;1.494;2023-05-08T01:09:04;16.83;;;2.42;;
78873;SDS011;68250;43.514;1.494;2023-05-08T01:11:40;15.23;;;2.60;;
78873;SDS011;68250;43.514;1.494;2023-05-08T01:14:15;16.23;;;2.97;;
78873;SDS011;68250;43.514;1.494;2023-05-08T01:16:55;13.25;;;2.17;;
78873;SDS011;68250;43.514;1.494;2023-05-08T01:33:44;14.00;;;2.92;;
78873;SDS011;68250;43.514;1.494;2023-05-08T01:39:20;10.68;;;2.28;;
78873;SDS011;68250;43.514;1.494;2023-05-08T01:42:00;14.97;;;2.30;;
78873;SDS011;68250;43.514;1.494;2023-05-08T01:44:32;13.38;;;2.40;;
78873;SDS011;68250;43.514;1.494;2023-05-08T01:47:02;13.20;;;2.45;;
78873;SDS011;68250;43.514;1.494;2023-05-08T01:49:36;15.60;;;2.50;;
78873;SDS011;68250;43.514;1.494;2023-05-08T01:52:06;12.68;;;2.17;;
78873;SDS011;68250;43.514;1.494;2023-05-08T01:54:47;12.73;;;2.30;;
78873;SDS011;68250;43.514;1.494;2023-05-08T01:57:17;14.35;;;2.55;;
78873;SDS011;68250;43.514;1.494;2023-05-08T01:59:43;14.98;;;2.53;;
78873;SDS011;68250;43.514;1.494;2023-05-08T02:02:09;9.88;;;2.20;;
78873;SDS011;68250;43.514;1.494;2023-05-08T02:04:35;13.77;;;2.37;;
78873;SDS011;68250;43.514;1.494;2023-05-08T02:07:01;16.90;;;2.42;;
78873;SDS011;68250;43.514;1.494;2023-05-08T02:09:28;13.85;;;2.40;;
78873;SDS011;68250;43.514;1.494;2023-05-08T02:11:53;16.17;;;2.83;;
78873;SDS011;68250;43.514;1.494;2023-05-08T02:14:19;16.70;;;2.83;;
78873;SDS011;68250;43.514;1.494;2023-05-08T02:16:47;13.90;;;2.75;;
78873;SDS011;68250;43.514;1.494;2023-05-08T02:19:14;14.10;;;2.95;;
78873;SDS011;68250;43.514;1.494;2023-05-08T02:21:40;12.13;;;2.38;;
78873;SDS011;68250;43.514;1.494;2023-05-08T02:24:06;15.50;;;3.10;;
78873;SDS011;68250;43.514;1.494;2023-05-08T02:26:32;14.73;;;2.38;;
78873;SDS011;68250;43.514;1.494;2023-05-08T02:28:58;17.55;;;3.10;;
78873;SDS011;68250;43.514;1.494;2023-05-08T02:31:24;15.63;;;2.38;;
78873;SDS011;68250;43.514;1.494;2023-05-08T02:33:51;15.57;;;3.03;;
78873;SDS011;68250;43.514;1.494;2023-05-08T02:36:17;19.65;;;2.80;;
78873;SDS011;68250;43.514;1.494;2023-05-08T02:38:43;14.55;;;2.47;;
78873;SDS011;68250;43.514;1.494;2023-05-08T02:41:11;18.70;;;2.50;;
78873;SDS011;68250;43.514;1.494;2023-05-08T02:43:38;13.27;;;2.28;;
78873;SDS011;68250;43.514;1.494;2023-05-08T02:46:21;16.70;;;2.80;;
78873;SDS011;68250;43.514;1.494;2023-05-08T02:49:42;17.50;;;2.55;;
78873;SDS011;68250;43.514;1.494;2023-05-08T02:56:57;16.67;;;2.73;;
78873;SDS011;68250;43.514;1.494;2023-05-08T02:59:29;19.95;;;2.95;;
78873;SDS011;68250;43.514;1.494;2023-05-08T03:02:09;15.82;;;2.67;;
78873;SDS011;68250;43.514;1.494;2023-05-08T03:07:52;14.27;;;2.40;;
78873;SDS011;68250;43.514;1.494;2023-05-08T03:10:20;14.25;;;2.55;;
78873;SDS011;68250;43.514;1.494;2023-05-08T03:12:50;14.95;;;2.55;;
78873;SDS011;68250;43.514;1.494;2023-05-08T03:15:23;15.50;;;2.83;;
78873;SDS011;68250;43.514;1.494;2023-05-08T03:17:51;13.15;;;2.38;;
78873;SDS011;68250;43.514;1.494;2023-05-08T03:20:21;16.73;;;2.80;;
78873;SDS011;68250;43.514;1.494;2023-05-08T03:22:49;14.95;;;2.20;;
78873;SDS011;68250;43.514;1.494;2023-05-08T03:25:15;12.93;;;2.70;;
78873;SDS011;68250;43.514;1.494;2023-05-08T03:27:42;12.90;;;2.70;;
78873;SDS011;68250;43.514;1.494;2023-05-08T03:30:08;14.00;;;3.00;;
78873;SDS011;68250;43.514;1.494;2023-05-08T03:32:35;14.82;;;2.90;;
78873;SDS011;68250;43.514;1.494;2023-05-08T03:35:02;17.60;;;2.70;;
78873;SDS011;68250;43.514;1.494;2023-05-08T03:37:28;15.23;;;2.80;;
78873;SDS011;68250;43.514;1.494;2023-05-08T03:39:57;12.10;;;2.50;;
78873;SDS011;68250;43.514;1.494;2023-05-08T03:42:22;13.80;;;2.67;;
78873;SDS011;68250;43.514;1.494;2023-05-08T03:44:49;15.13;;;2.60;;
78873;SDS011;68250;43.514;1.494;2023-05-08T03:47:19;14.40;;;2.67;;
78873;SDS011;68250;43.514;1.494;2023-05-08T03:49:45;12.57;;;2.27;;
78873;SDS011;68250;43.514;1.494;2023-05-08T03:52:12;15.30;;;2.80;;
78873;SDS011;68250;43.514;1.494;2023-05-08T03:54:38;14.13;;;2.92;;
78873;SDS011;68250;43.514;1.494;2023-05-08T03:57:04;14.77;;;2.47;;
78873;SDS011;68250;43.514;1.494;2023-05-08T04:02:35;13.85;;;2.10;;
78873;SDS011;68250;43.514;1.494;2023-05-08T04:05:09;14.27;;;2.10;;
78873;SDS011;68250;43.514;1.494;2023-05-08T04:07:51;12.43;;;2.35;;
78873;SDS011;68250;43.514;1.494;2023-05-08T04:10:28;13.48;;;3.00;;
78873;SDS011;68250;43.514;1.494;2023-05-08T04:12:57;13.77;;;2.55;;
78873;SDS011;68250;43.514;1.494;2023-05-08T04:18:33;16.40;;;2.27;;
78873;SDS011;68250;43.514;1.494;2023-05-08T04:21:02;14.95;;;2.35;;
78873;SDS011;68250;43.514;1.494;2023-05-08T04:23:27;16.00;;;3.00;;
78873;SDS011;68250;43.514;1.494;2023-05-08T04:25:54;20.52;;;2.80;;
78873;SDS011;68250;43.514;1.494;2023-05-08T04:28:20;14.77;;;2.63;;
78873;SDS011;68250;43.514;1.494;2023-05-08T04:30:46;12.85;;;2.13;;
78873;SDS011;68250;43.514;1.494;2023-05-08T04:33:12;15.15;;;2.95;;
78873;SDS011;68250;43.514;1.494;2023-05-08T04:35:38;13.57;;;2.60;;
78873;SDS011;68250;43.514;1.494;2023-05-08T04:38:04;14.43;;;2.63;;
78873;SDS011;68250;43.514;1.494;2023-05-08T04:40:29;13.00;;;2.60;;
78873;SDS011;68250;43.514;1.494;2023-05-08T04:42:55;12.88;;;2.30;;
78873;SDS011;68250;43.514;1.494;2023-05-08T04:45:20;13.43;;;2.17;;
78873;SDS011;68250;43.514;1.494;2023-05-08T04:47:46;14.13;;;2.55;;
78873;SDS011;68250;43.514;1.494;2023-05-08T04:50:12;15.90;;;2.43;;
78873;SDS011;68250;43.514;1.494;2023-05-08T04:52:37;16.60;;;2.23;;
78873;SDS011;68250;43.514;1.494;2023-05-08T04:55:03;13.82;;;2.45;;
78873;SDS011;68250;43.514;1.494;2023-05-08T04:57:29;15.30;;;2.60;;
78873;SDS011;68250;43.514;1.494;2023-05-08T04:59:55;14.40;;;2.70;;
78873;SDS011;68250;43.514;1.494;2023-05-08T05:02:20;16.37;;;3.00;;
78873;SDS011;68250;43.514;1.494;2023-05-08T05:04:46;11.75;;;2.60;;
78873;SDS011;68250;43.514;1.494;2023-05-08T05:07:11;18.20;;;2.70;;
78873;SDS011;68250;43.514;1.494;2023-05-08T05:09:37;12.87;;;2.37;;
78873;SDS011;68250;43.514;1.494;2023-05-08T05:12:06;15.65;;;2.70;;
78873;SDS011;68250;43.514;1.494;2023-05-08T05:14:32;12.25;;;2.47;;
78873;SDS011;68250;43.514;1.494;2023-05-08T05:16:57;16.13;;;2.35;;
78873;SDS011;68250;43.514;1.494;2023-05-08T05:19:23;17.73;;;3.00;;
78873;SDS011;68250;43.514;1.494;2023-05-08T05:21:49;12.52;;;2.47;;
78873;SDS011;68250;43.514;1.494;2023-05-08T05:24:15;16.33;;;2.73;;
78873;SDS011;68250;43.514;1.494;2023-05-08T05:26:40;17.55;;;2.55;;
78873;SDS011;68250;43.514;1.494;2023-05-08T05:29:06;14.50;;;2.87;;
78873;SDS011;68250;43.514;1.494;2023-05-08T05:31:31;19.90;;;3.07;;
78873;SDS011;68250;43.514;1.494;2023-05-08T05:33:57;13.02;;;2.60;;
78873;SDS011;68250;43.514;1.494;2023-05-08T05:36:23;14.65;;;2.65;;
78873;SDS011;68250;43.514;1.494;2023-05-08T05:38:49;10.90;;;2.30;;
78873;SDS011;68250;43.514;1.494;2023-05-08T05:41:15;12.00;;;2.53;;
78873;SDS011;68250;43.514;1.494;2023-05-08T05:43:40;9.07;;;2.13;;
78873;SDS011;68250;43.514;1.494;2023-05-08T05:46:06;13.02;;;2.63;;
78873;SDS011;68250;43.514;1.494;2023-05-08T05:48:32;12.50;;;2.40;;
78873;SDS011;68250;43.514;1.494;2023-05-08T05:50:58;12.52;;;2.20;;
78873;SDS011;68250;43.514;1.494;2023-05-08T05:53:24;12.03;;;2.00;;
78873;SDS011;68250;43.514;1.494;2023-05-08T05:55:49;10.17;;;1.93;;
78873;SDS011;68250;43.514;1.494;2023-05-08T05:58:15;8.43;;;1.80;;
78873;SDS011;68250;43.514;1.494;2023-05-08T06:00:41;10.90;;;1.90;;
78873;SDS011;68250;43.514;1.494;2023-05-08T06:03:07;12.80;;;1.95;;
78873;SDS011;68250;43.514;1.494;2023-05-08T06:05:32;12.18;;;1.90;;
78873;SDS011;68250;43.514;1.494;2023-05-08T06:07:58;8.87;;;1.63;;
78873;SDS011;68250;43.514;1.494;2023-05-08T06:10:24;8.57;;;1.73;;
78873;SDS011;68250;43.514;1.494;2023-05-08T06:12:50;11.33;;;1.83;;
78873;SDS011;68250;43.514;1.494;2023-05-08T06:15:15;11.02;;;1.70;;
78873;SDS011;68250;43.514;1.494;2023-05-08T06:17:41;9.27;;;1.70;;
78873;SDS011;68250;43.514;1.494;2023-05-08T06:20:07;7.72;;;1.50;;
78873;SDS011;68250;43.514;1.494;2023-05-08T06:22:33;8.93;;;1.80;;
78873;SDS011;68250;43.514;1.494;2023-05-08T06:24:58;8.50;;;1.67;;
78873;SDS011;68250;43.514;1.494;2023-05-08T06:27:24;10.13;;;1.70;;
78873;SDS011;68250;43.514;1.494;2023-05-08T06:29:50;7.65;;;1.95;;
78873;SDS011;68250;43.514;1.494;2023-05-08T06:32:17;10.77;;;2.33;;
78873;SDS011;68250;43.514;1.494;2023-05-08T06:34:43;8.38;;;1.60;;
78873;SDS011;68250;43.514;1.494;2023-05-08T06:37:09;8.37;;;1.73;;
78873;SDS011;68250;43.514;1.494;2023-05-08T06:39:35;6.18;;;1.40;;
78873;SDS011;68250;43.514;1.494;2023-05-08T06:42:00;9.17;;;2.00;;
78873;SDS011;68250;43.514;1.494;2023-05-08T06:44:26;7.53;;;1.50;;
78873;SDS011;68250;43.514;1.494;2023-05-08T06:46:52;9.13;;;1.60;;
78873;SDS011;68250;43.514;1.494;2023-05-08T06:49:17;9.05;;;1.40;;
78873;SDS011;68250;43.514;1.494;2023-05-08T06:51:43;6.63;;;1.90;;
78873;SDS011;68250;43.514;1.494;2023-05-08T06:54:08;11.30;;;2.47;;
78873;SDS011;68250;43.514;1.494;2023-05-08T06:56:34;7.57;;;1.92;;
78873;SDS011;68250;43.514;1.494;2023-05-08T06:59:00;10.57;;;1.57;;
78873;SDS011;68250;43.514;1.494;2023-05-08T07:01:25;4.63;;;1.33;;
78873;SDS011;68250;43.514;1.494;2023-05-08T07:03:51;6.80;;;1.80;;
78873;SDS011;68250;43.514;1.494;2023-05-08T07:06:17;7.28;;;1.60;;
78873;SDS011;68250;43.514;1.494;2023-05-08T07:08:42;8.53;;;1.57;;
78873;SDS011;68250;43.514;1.494;2023-05-08T07:11:08;7.00;;;1.47;;
78873;SDS011;68250;43.514;1.494;2023-05-08T07:13:37;7.47;;;1.75;;
78873;SDS011;68250;43.514;1.494;2023-05-08T07:16:07;7.10;;;2.05;;
78873;SDS011;68250;43.514;1.494;2023-05-08T07:18:36;10.30;;;1.30;;
78873;SDS011;68250;43.514;1.494;2023-05-08T07:21:01;8.52;;;1.30;;
78873;SDS011;68250;43.514;1.494;2023-05-08T07:23:27;8.38;;;1.23;;
78873;SDS011;68250;43.514;1.494;2023-05-08T07:25:53;7.63;;;1.60;;
78873;SDS011;68250;43.514;1.494;2023-05-08T07:28:19;7.10;;;1.13;;
78873;SDS011;68250;43.514;1.494;2023-05-08T07:30:45;5.18;;;0.88;;
78873;SDS011;68250;43.514;1.494;2023-05-08T07:33:10;6.30;;;0.95;;
78873;SDS011;68250;43.514;1.494;2023-05-08T07:35:37;3.88;;;0.90;;
78873;SDS011;68250;43.514;1.494;2023-05-08T07:38:03;4.90;;;0.90;;
78873;SDS011;68250;43.514;1.494;2023-05-08T07:40:29;6.10;;;0.93;;
78873;SDS011;68250;43.514;1.494;2023-05-08T07:42:54;6.50;;;0.90;;
78873;SDS011;68250;43.514;1.494;2023-05-08T07:45:20;4.93;;;1.20;;
78873;SDS011;68250;43.514;1.494;2023-05-08T07:47:56;5.43;;;0.70;;
78873;SDS011;68250;43.514;1.494;2023-05-08T07:50:22;5.45;;;0.95;;
78873;SDS011;68250;43.514;1.494;2023-05-08T07:52:49;6.22;;;1.10;;
78873;SDS011;68250;43.514;1.494;2023-05-08T07:55:16;7.57;;;0.75;;
78873;SDS011;68250;43.514;1.494;2023-05-08T07:57:42;4.47;;;0.70;;
78873;SDS011;68250;43.514;1.494;2023-05-08T08:00:09;5.50;;;0.80;;
78873;SDS011;68250;43.514;1.494;2023-05-08T08:02:36;4.68;;;0.93;;
78873;SDS011;68250;43.514;1.494;2023-05-08T08:05:03;8.53;;;1.00;;
78873;SDS011;68250;43.514;1.494;2023-05-08T08:07:29;6.05;;;0.95;;
78873;SDS011;68250;43.514;1.494;2023-05-08T08:09:57;7.20;;;1.00;;
78873;SDS011;68250;43.514;1.494;2023-05-08T08:12:23;7.20;;;1.17;;
78873;SDS011;68250;43.514;1.494;2023-05-08T08:14:48;6.10;;;0.90;;
78873;SDS011;68250;43.514;1.494;2023-05-08T08:17:14;6.05;;;1.00;;
78873;SDS011;68250;43.514;1.494;2023-05-08T08:19:39;6.13;;;0.90;;
78873;SDS011;68250;43.514;1.494;2023-05-08T08:22:05;7.23;;;1.00;;
78873;SDS011;68250;43.514;1.494;2023-05-08T08:24:31;8.02;;;1.23;;
78873;SDS011;68250;43.514;1.494;2023-05-08T08:26:56;5.63;;;0.83;;
78873;SDS011;68250;43.514;1.494;2023-05-08T08:29:22;5.90;;;0.70;;
78873;SDS011;68250;43.514;1.494;2023-05-08T08:31:48;6.50;;;0.90;;
78873;SDS011;68250;43.514;1.494;2023-05-08T08:34:14;7.63;;;1.10;;
78873;SDS011;68250;43.514;1.494;2023-05-08T08:36:39;7.43;;;1.20;;
78873;SDS011;68250;43.514;1.494;2023-05-08T08:39:05;8.35;;;1.17;;
78873;SDS011;68250;43.514;1.494;2023-05-08T08:41:31;6.07;;;0.93;;
78873;SDS011;68250;43.514;1.494;2023-05-08T08:43:57;6.85;;;1.00;;
78873;SDS011;68250;43.514;1.494;2023-05-08T08:46:23;6.87;;;1.30;;
78873;SDS011;68250;43.514;1.494;2023-05-08T08:48:50;7.05;;;1.10;;
78873;SDS011;68250;43.514;1.494;2023-05-08T08:51:30;5.93;;;1.08;;
78873;SDS011;68250;43.514;1.494;2023-05-08T08:54:06;5.75;;;0.80;;
78873;SDS011;68250;43.514;1.494;2023-05-08T08:56:39;6.27;;;1.20;;
78873;SDS011;68250;43.514;1.494;2023-05-08T08:59:07;5.53;;;0.90;;
78873;SDS011;68250;43.514;1.494;2023-05-08T09:01:33;8.43;;;1.33;;
78873;SDS011;68250;43.514;1.494;2023-05-08T09:04:00;5.00;;;0.98;;
78873;SDS011;68250;43.514;1.494;2023-05-08T09:06:27;6.93;;;0.93;;
78873;SDS011;68250;43.514;1.494;2023-05-08T09:08:56;6.33;;;1.00;;
78873;SDS011;68250;43.514;1.494;2023-05-08T09:11:22;5.15;;;0.85;;
78873;SDS011;68250;43.514;1.494;2023-05-08T09:13:51;6.93;;;1.00;;
78873;SDS011;68250;43.514;1.494;2023-05-08T09:16:17;5.70;;;0.80;;
78873;SDS011;68250;43.514;1.494;2023-05-08T09:18:42;5.45;;;0.82;;
78873;SDS011;68250;43.514;1.494;2023-05-08T09:21:08;7.93;;;1.43;;
78873;SDS011;68250;43.514;1.494;2023-05-08T09:23:53;5.03;;;0.90;;
78873;SDS011;68250;43.514;1.494;2023-05-08T09:26:30;6.22;;;1.27;;
78873;SDS011;68250;43.514;1.494;2023-05-08T09:29:07;6.33;;;1.07;;
78873;SDS011;68250;43.514;1.494;2023-05-08T09:31:37;8.15;;;1.00;;
78873;SDS011;68250;43.514;1.494;2023-05-08T09:34:07;6.40;;;1.30;;
78873;SDS011;68250;43.514;1.494;2023-05-08T09:36:33;7.03;;;0.98;;
78873;SDS011;68250;43.514;1.494;2023-05-08T09:39:01;4.65;;;0.88;;
78873;SDS011;68250;43.514;1.494;2023-05-08T09:41:27;4.57;;;1.00;;
78873;SDS011;68250;43.514;1.494;2023-05-08T09:44:00;5.22;;;1.20;;
78873;SDS011;68250;43.514;1.494;2023-05-08T09:46:27;4.85;;;1.20;;
78873;SDS011;68250;43.514;1.494;2023-05-08T09:48:53;5.17;;;0.90;;
78873;SDS011;68250;43.514;1.494;2023-05-08T09:51:20;5.50;;;0.93;;
78873;SDS011;68250;43.514;1.494;2023-05-08T09:53:49;7.30;;;1.10;;
78873;SDS011;68250;43.514;1.494;2023-05-08T09:56:27;4.95;;;1.00;;
78873;SDS011;68250;43.514;1.494;2023-05-08T09:58:56;5.23;;;1.07;;
78873;SDS011;68250;43.514;1.494;2023-05-08T10:03:54;7.35;;;1.60;;
78873;SDS011;68250;43.514;1.494;2023-05-08T10:06:20;7.50;;;2.20;;
78873;SDS011;68250;43.514;1.494;2023-05-08T10:08:46;6.00;;;1.97;;
78873;SDS011;68250;43.514;1.494;2023-05-08T10:11:15;5.13;;;1.00;;
78873;SDS011;68250;43.514;1.494;2023-05-08T10:13:45;5.80;;;1.27;;
78873;SDS011;68250;43.514;1.494;2023-05-08T10:16:15;5.55;;;0.90;;
78873;SDS011;68250;43.514;1.494;2023-05-08T10:18:50;6.00;;;0.95;;
78873;SDS011;68250;43.514;1.494;2023-05-08T10:21:21;7.23;;;0.90;;
78873;SDS011;68250;43.514;1.494;2023-05-08T10:23:48;4.30;;;1.00;;
78873;SDS011;68250;43.514;1.494;2023-05-08T10:26:18;5.82;;;1.05;;
78873;SDS011;68250;43.514;1.494;2023-05-08T10:28:56;4.80;;;1.08;;
78873;SDS011;68250;43.514;1.494;2023-05-08T10:31:35;4.50;;;1.40;;
78873;SDS011;68250;43.514;1.494;2023-05-08T10:34:02;5.47;;;1.30;;
78873;SDS011;68250;43.514;1.494;2023-05-08T10:36:29;7.78;;;1.83;;
78873;SDS011;68250;43.514;1.494;2023-05-08T10:38:58;6.40;;;1.08;;
78873;SDS011;68250;43.514;1.494;2023-05-08T10:41:24;4.35;;;0.80;;
78873;SDS011;68250;43.514;1.494;2023-05-08T10:43:50;5.13;;;1.10;;
78873;SDS011;68250;43.514;1.494;2023-05-08T10:49:11;4.63;;;0.80;;
78873;SDS011;68250;43.514;1.494;2023-05-08T10:57:30;5.68;;;1.00;;
78873;SDS011;68250;43.514;1.494;2023-05-08T10:59:56;6.35;;;1.10;;
78873;SDS011;68250;43.514;1.494;2023-05-08T11:02:28;5.33;;;1.30;;
78873;SDS011;68250;43.514;1.494;2023-05-08T11:05:13;5.63;;;0.98;;
78873;SDS011;68250;43.514;1.494;2023-05-08T11:07:53;4.82;;;1.00;;
78873;SDS011;68250;43.514;1.494;2023-05-08T11:10:28;5.72;;;1.10;;
78873;SDS011;68250;43.514;1.494;2023-05-08T11:12:55;4.43;;;1.00;;
78873;SDS011;68250;43.514;1.494;2023-05-08T11:15:34;4.47;;;0.97;;
78873;SDS011;68250;43.514;1.494;2023-05-08T11:18:05;5.10;;;1.02;;
78873;SDS011;68250;43.514;1.494;2023-05-08T11:20:37;3.88;;;1.15;;
78873;SDS011;68250;43.514;1.494;2023-05-08T11:25:58;4.57;;;0.98;;
78873;SDS011;68250;43.514;1.494;2023-05-08T11:28:36;5.00;;;0.97;;
78873;SDS011;68250;43.514;1.494;2023-05-08T11:31:03;4.43;;;1.10;;
78873;SDS011;68250;43.514;1.494;2023-05-08T11:33:36;4.68;;;0.80;;
78873;SDS011;68250;43.514;1.494;2023-05-08T11:38:40;6.15;;;1.00;;
78873;SDS011;68250;43.514;1.494;2023-05-08T11:41:18;4.37;;;0.90;;
78873;SDS011;68250;43.514;1.494;2023-05-08T11:46:23;4.88;;;1.00;;
78873;SDS011;68250;43.514;1.494;2023-05-08T11:49:01;6.05;;;1.00;;
78873;SDS011;68250;43.514;1.494;2023-05-08T11:51:31;5.33;;;1.20;;
78873;SDS011;68250;43.514;1.494;2023-05-08T11:53:57;4.18;;;1.30;;
78873;SDS011;68250;43.514;1.494;2023-05-08T11:56:26;5.63;;;1.10;;
78873;SDS011;68250;43.514;1.494;2023-05-08T11:59:04;4.97;;;0.90;;
78873;SDS011;68250;43.514;1.494;2023-05-08T12:01:30;4.80;;;0.77;;
78873;SDS011;68250;43.514;1.494;2023-05-08T12:04:07;4.55;;;0.93;;
78873;SDS011;68250;43.514;1.494;2023-05-08T12:06:34;6.13;;;0.93;;
78873;SDS011;68250;43.514;1.494;2023-05-08T12:09:11;3.55;;;0.63;;
78873;SDS011;68250;43.514;1.494;2023-05-08T12:11:39;6.07;;;1.07;;
78873;SDS011;68250;43.514;1.494;2023-05-08T12:14:08;5.25;;;1.30;;
78873;SDS011;68250;43.514;1.494;2023-05-08T12:16:34;4.28;;;1.20;;
78873;SDS011;68250;43.514;1.494;2023-05-08T12:19:02;4.53;;;1.10;;
78873;SDS011;68250;43.514;1.494;2023-05-08T12:21:27;5.32;;;1.20;;
78873;SDS011;68250;43.514;1.494;2023-05-08T12:23:53;4.37;;;1.30;;
78873;SDS011;68250;43.514;1.494;2023-05-08T12:26:20;4.82;;;1.40;;
78873;SDS011;68250;43.514;1.494;2023-05-08T12:28:46;6.18;;;1.20;;
78873;SDS011;68250;43.514;1.494;2023-05-08T12:31:19;5.07;;;1.10;;
78873;SDS011;68250;43.514;1.494;2023-05-08T12:33:44;4.80;;;1.10;;
78873;SDS011;68250;43.514;1.494;2023-05-08T12:36:10;6.27;;;1.20;;
78873;SDS011;68250;43.514;1.494;2023-05-08T12:38:36;5.22;;;1.35;;
78873;SDS011;68250;43.514;1.494;2023-05-08T12:41:01;6.47;;;1.60;;
78873;SDS011;68250;43.514;1.494;2023-05-08T12:43:32;5.93;;;1.40;;
78873;SDS011;68250;43.514;1.494;2023-05-08T12:45:59;6.93;;;1.00;;
78873;SDS011;68250;43.514;1.494;2023-05-08T12:48:25;6.10;;;1.10;;
78873;SDS011;68250;43.514;1.494;2023-05-08T12:50:51;5.88;;;1.40;;
78873;SDS011;68250;43.514;1.494;2023-05-08T12:53:17;4.88;;;1.00;;
78873;SDS011;68250;43.514;1.494;2023-05-08T12:55:51;6.07;;;1.10;;
78873;SDS011;68250;43.514;1.494;2023-05-08T12:58:25;5.20;;;1.10;;
78873;SDS011;68250;43.514;1.494;2023-05-08T13:00:52;4.22;;;1.15;;
78873;SDS011;68250;43.514;1.494;2023-05-08T13:03:22;6.00;;;0.95;;
78873;SDS011;68250;43.514;1.494;2023-05-08T13:05:51;5.57;;;1.30;;
78873;SDS011;68250;43.514;1.494;2023-05-08T13:08:18;4.77;;;1.33;;
78873;SDS011;68250;43.514;1.494;2023-05-08T13:10:51;4.07;;;0.93;;
78873;SDS011;68250;43.514;1.494;2023-05-08T13:13:19;4.90;;;1.20;;
78873;SDS011;68250;43.514;1.494;2023-05-08T13:15:45;5.65;;;1.08;;
78873;SDS011;68250;43.514;1.494;2023-05-08T13:18:11;4.97;;;1.00;;
78873;SDS011;68250;43.514;1.494;2023-05-08T13:20:37;4.82;;;1.10;;
78873;SDS011;68250;43.514;1.494;2023-05-08T13:23:04;6.47;;;1.40;;
78873;SDS011;68250;43.514;1.494;2023-05-08T13:25:30;7.85;;;1.50;;
78873;SDS011;68250;43.514;1.494;2023-05-08T13:27:56;5.78;;;1.30;;
78873;SDS011;68250;43.514;1.494;2023-05-08T13:30:22;6.30;;;1.60;;
78873;SDS011;68250;43.514;1.494;2023-05-08T13:32:48;4.90;;;1.17;;
78873;SDS011;68250;43.514;1.494;2023-05-08T13:35:14;5.88;;;0.98;;
78873;SDS011;68250;43.514;1.494;2023-05-08T13:37:40;4.77;;;1.13;;
78873;SDS011;68250;43.514;1.494;2023-05-08T13:40:06;5.25;;;1.08;;
78873;SDS011;68250;43.514;1.494;2023-05-08T13:42:32;5.93;;;1.38;;
78873;SDS011;68250;43.514;1.494;2023-05-08T13:44:58;5.30;;;1.20;;
78873;SDS011;68250;43.514;1.494;2023-05-08T13:47:23;3.57;;;1.10;;
78873;SDS011;68250;43.514;1.494;2023-05-08T13:49:49;4.70;;;1.05;;
78873;SDS011;68250;43.514;1.494;2023-05-08T13:52:15;6.10;;;1.23;;
78873;SDS011;68250;43.514;1.494;2023-05-08T13:54:41;6.80;;;1.15;;
78873;SDS011;68250;43.514;1.494;2023-05-08T13:57:06;5.33;;;1.10;;
78873;SDS011;68250;43.514;1.494;2023-05-08T13:59:33;5.50;;;1.33;;
78873;SDS011;68250;43.514;1.494;2023-05-08T14:01:59;4.57;;;1.08;;
78873;SDS011;68250;43.514;1.494;2023-05-08T14:04:24;5.15;;;1.20;;
78873;SDS011;68250;43.514;1.494;2023-05-08T14:06:50;4.70;;;0.80;;
78873;SDS011;68250;43.514;1.494;2023-05-08T14:09:15;3.42;;;1.13;;
78873;SDS011;68250;43.514;1.494;2023-05-08T14:11:41;5.87;;;1.13;;
78873;SDS011;68250;43.514;1.494;2023-05-08T14:14:07;5.27;;;1.20;;
78873;SDS011;68250;43.514;1.494;2023-05-08T14:16:32;4.95;;;1.17;;
78873;SDS011;68250;43.514;1.494;2023-05-08T14:18:58;5.43;;;1.20;;
78873;SDS011;68250;43.514;1.494;2023-05-08T14:21:23;6.40;;;1.20;;
78873;SDS011;68250;43.514;1.494;2023-05-08T14:23:49;4.15;;;1.10;;
78873;SDS011;68250;43.514;1.494;2023-05-08T14:26:15;5.88;;;1.30;;
78873;SDS011;68250;43.514;1.494;2023-05-08T14:28:41;5.40;;;1.30;;
78873;SDS011;68250;43.514;1.494;2023-05-08T14:31:06;5.47;;;0.97;;
78873;SDS011;68250;43.514;1.494;2023-05-08T14:33:32;4.68;;;1.20;;
78873;SDS011;68250;43.514;1.494;2023-05-08T14:35:57;5.67;;;1.40;;
78873;SDS011;68250;43.514;1.494;2023-05-08T14:38:23;6.00;;;1.08;;
78873;SDS011;68250;43.514;1.494;2023-05-08T14:40:49;4.60;;;1.10;;
78873;SDS011;68250;43.514;1.494;2023-05-08T14:43:15;6.03;;;0.95;;
78873;SDS011;68250;43.514;1.494;2023-05-08T14:45:41;4.32;;;0.80;;
78873;SDS011;68250;43.514;1.494;2023-05-08T14:48:06;5.83;;;1.10;;
78873;SDS011;68250;43.514;1.494;2023-05-08T14:50:32;4.60;;;1.30;;
78873;SDS011;68250;43.514;1.494;2023-05-08T14:52:58;4.35;;;1.10;;
78873;SDS011;68250;43.514;1.494;2023-05-08T14:55:23;5.73;;;1.00;;
78873;SDS011;68250;43.514;1.494;2023-05-08T14:57:49;3.58;;;0.90;;
78873;SDS011;68250;43.514;1.494;2023-05-08T15:00:15;3.63;;;0.90;;
78873;SDS011;68250;43.514;1.494;2023-05-08T15:02:41;3.90;;;0.90;;
78873;SDS011;68250;43.514;1.494;2023-05-08T15:05:08;5.43;;;1.05;;
78873;SDS011;68250;43.514;1.494;2023-05-08T15:07:34;5.47;;;0.97;;
78873;SDS011;68250;43.514;1.494;2023-05-08T15:09:59;4.20;;;1.00;;
78873;SDS011;68250;43.514;1.494;2023-05-08T15:12:25;4.00;;;1.05;;
78873;SDS011;68250;43.514;1.494;2023-05-08T15:14:51;5.33;;;1.40;;
78873;SDS011;68250;43.514;1.494;2023-05-08T15:17:16;5.03;;;1.30;;
78873;SDS011;68250;43.514;1.494;2023-05-08T15:19:42;3.83;;;1.10;;
78873;SDS011;68250;43.514;1.494;2023-05-08T15:22:09;4.38;;;1.10;;
78873;SDS011;68250;43.514;1.494;2023-05-08T15:24:36;5.72;;;1.27;;
78873;SDS011;68250;43.514;1.494;2023-05-08T15:27:01;6.27;;;1.30;;
78873;SDS011;68250;43.514;1.494;2023-05-08T15:29:27;4.60;;;0.95;;
78873;SDS011;68250;43.514;1.494;2023-05-08T15:31:53;4.70;;;1.30;;
78873;SDS011;68250;43.514;1.494;2023-05-08T15:34:19;4.63;;;1.00;;
78873;SDS011;68250;43.514;1.494;2023-05-08T15:36:45;4.88;;;1.13;;